createdAt,value
2019-05-09T00:01:44.620Z,2.57
2019-05-09T00:04:15.852Z,2.83
2019-05-09T00:06:47.114Z,2.93
2019-05-09T00:09:18.316Z,3.87
2019-05-09T00:11:49.586Z,4.67
2019-05-09T00:14:20.815Z,5.07
2019-05-09T00:16:53.109Z,4.87
2019-05-09T00:19:24.396Z,4.17
2019-05-09T00:21:55.677Z,3.67
2019-05-09T00:24:26.898Z,4.20
2019-05-09T00:26:58.166Z,4.40
2019-05-09T00:29:35.464Z,4.10
2019-05-09T00:32:23.929Z,4.13
2019-05-09T00:35:29.318Z,3.50
2019-05-09T00:38:10.332Z,2.87
2019-05-09T00:40:53.072Z,3.87
2019-05-09T00:43:14.516Z,3.20
2019-05-09T00:46:04.532Z,3.20
2019-05-09T00:48:57.636Z,2.80
2019-05-09T00:51:29.076Z,2.90
2019-05-09T00:54:00.193Z,3.20
2019-05-09T00:56:33.147Z,3.23
2019-05-09T00:59:04.467Z,4.40
2019-05-09T01:01:35.895Z,4.17
2019-05-09T01:04:07.401Z,3.80
2019-05-09T01:06:38.631Z,3.73
2019-05-09T01:09:10.046Z,3.83
2019-05-09T01:11:41.287Z,4.23
2019-05-09T01:14:14.188Z,4.20
2019-05-09T01:16:45.532Z,5.20
2019-05-09T01:19:16.584Z,4.07
2019-05-09T01:21:47.839Z,4.13
2019-05-09T01:24:18.931Z,5.17
2019-05-09T01:26:50.071Z,5.53
2019-05-09T01:29:23.031Z,5.53
2019-05-09T01:31:56.245Z,6.03
2019-05-09T01:34:30.525Z,5.23
2019-05-09T01:37:04.972Z,5.03
2019-05-09T01:39:37.735Z,5.37
2019-05-09T01:42:09.169Z,4.83
2019-05-09T01:44:40.301Z,5.30
2019-05-09T01:47:11.424Z,6.37
2019-05-09T01:49:43.155Z,5.07
2019-05-09T01:52:14.517Z,5.30
2019-05-09T01:54:47.273Z,5.83
2019-05-09T01:57:18.438Z,5.67
2019-05-09T01:59:49.738Z,5.50
2019-05-09T02:02:20.977Z,5.90
2019-05-09T02:04:53.322Z,5.37
2019-05-09T02:07:24.555Z,5.00
2019-05-09T02:09:55.691Z,3.90
2019-05-09T02:12:26.941Z,5.63
2019-05-09T02:15:07.208Z,6.13
2019-05-09T02:17:57.754Z,5.80
2019-05-09T02:20:21.173Z,4.30
2019-05-09T02:22:54.240Z,4.90
2019-05-09T02:25:25.287Z,4.77
2019-05-09T02:27:56.485Z,3.90
2019-05-09T02:30:27.678Z,4.37
2019-05-09T02:32:58.916Z,4.50
2019-05-09T02:35:36.219Z,5.30
2019-05-09T02:38:03.002Z,6.07
2019-05-09T02:40:34.164Z,6.07
2019-05-09T02:43:05.496Z,5.97
2019-05-09T02:45:51.912Z,5.80
2019-05-09T02:48:19.507Z,4.73
2019-05-09T02:50:50.673Z,5.50
2019-05-09T02:53:21.807Z,5.00
2019-05-09T02:55:53.014Z,4.93
2019-05-09T02:58:28.245Z,4.37
2019-05-09T03:01:19.063Z,4.47
2019-05-09T03:03:50.500Z,5.07
2019-05-09T03:06:21.684Z,4.37
2019-05-09T03:08:52.812Z,5.10
2019-05-09T03:11:24.044Z,5.37
2019-05-09T03:13:58.332Z,4.53
2019-05-09T03:16:29.340Z,4.90
2019-05-09T03:19:00.849Z,4.73
2019-05-09T03:21:43.102Z,4.47
2019-05-09T03:24:14.256Z,5.50
2019-05-09T03:26:49.391Z,4.73
2019-05-09T03:29:48.588Z,6.33
2019-05-09T03:32:19.417Z,5.20
2019-05-09T03:34:51.033Z,4.73
2019-05-09T03:37:22.144Z,4.00
2019-05-09T03:39:53.300Z,5.00
2019-05-09T03:42:38.128Z,5.33
2019-05-09T03:44:58.088Z,6.53
2019-05-09T03:47:34.977Z,6.67
2019-05-09T03:50:11.201Z,4.90
2019-05-09T03:52:42.307Z,6.07
2019-05-09T03:55:18.318Z,6.87
2019-05-09T03:57:57.942Z,6.20
2019-05-09T04:00:28.934Z,6.97
2019-05-09T04:03:00.197Z,6.47
2019-05-09T04:05:31.439Z,6.70
2019-05-09T04:08:18.645Z,6.60
2019-05-09T04:10:51.657Z,7.20
2019-05-09T04:13:28.344Z,7.07
2019-05-09T04:15:59.857Z,6.30
2019-05-09T04:18:31.057Z,7.10
2019-05-09T04:21:02.601Z,8.57
2019-05-09T04:23:33.813Z,7.90
2019-05-09T04:26:10.368Z,8.30
2019-05-09T04:28:41.582Z,7.93
2019-05-09T04:31:12.738Z,7.37
2019-05-09T04:33:43.970Z,7.33
2019-05-09T04:36:15.189Z,6.80
2019-05-09T04:38:47.229Z,7.23
2019-05-09T04:41:23.886Z,7.43
2019-05-09T04:43:51.496Z,7.40
2019-05-09T04:46:24.392Z,7.07
2019-05-09T04:48:59.562Z,7.80
2019-05-09T04:51:28.441Z,6.90
2019-05-09T04:53:59.663Z,6.80
2019-05-09T04:56:38.036Z,6.30
2019-05-09T04:59:08.719Z,6.47
2019-05-09T05:01:58.665Z,7.37
2019-05-09T05:04:29.939Z,5.87
2019-05-09T05:07:01.140Z,8.90
2019-05-09T05:09:32.304Z,5.60
2019-05-09T05:12:03.468Z,7.60
2019-05-09T05:14:34.678Z,5.30
2019-05-09T05:17:10.598Z,5.97
2019-05-09T05:19:38.762Z,5.07
2019-05-09T05:22:21.710Z,5.27
2019-05-09T05:25:03.483Z,4.60
2019-05-09T05:27:34.626Z,4.60
2019-05-09T05:30:07.524Z,5.03
2019-05-09T05:32:44.593Z,4.70
2019-05-09T05:35:37.426Z,4.47
2019-05-09T05:38:08.665Z,3.73
2019-05-09T05:40:44.993Z,4.13
2019-05-09T05:43:12.904Z,3.73
2019-05-09T05:45:53.339Z,3.80
2019-05-09T05:48:28.072Z,3.20
2019-05-09T05:50:59.264Z,2.53
2019-05-09T05:53:30.398Z,2.50
2019-05-09T05:56:01.627Z,2.80
2019-05-09T05:58:32.839Z,2.37
2019-05-09T06:01:04.721Z,2.17
2019-05-09T06:03:37.679Z,2.47
2019-05-09T06:06:09.101Z,1.93
2019-05-09T06:08:40.220Z,2.50
2019-05-09T06:11:12.356Z,2.17
2019-05-09T06:13:56.194Z,2.77
2019-05-09T06:16:18.266Z,2.27
2019-05-09T06:18:49.352Z,2.97
2019-05-09T06:21:20.710Z,2.47
2019-05-09T06:23:51.951Z,2.10
2019-05-09T06:26:23.223Z,2.40
2019-05-09T06:28:54.460Z,2.47
2019-05-09T06:31:28.296Z,2.03
2019-05-09T06:33:58.689Z,1.97
2019-05-09T06:36:29.826Z,2.13
2019-05-09T06:39:01.098Z,2.83
2019-05-09T06:41:32.365Z,2.10
2019-05-09T06:44:17.011Z,2.60
2019-05-09T06:46:59.438Z,2.40
2019-05-09T06:49:37.650Z,2.23
2019-05-09T06:52:08.893Z,2.27
2019-05-09T06:54:41.694Z,2.30
2019-05-09T06:57:13.120Z,2.23
2019-05-09T06:59:44.322Z,2.37
2019-05-09T07:02:33.709Z,1.80
2019-05-09T07:05:23.708Z,2.23
2019-05-09T07:08:27.359Z,1.90
2019-05-09T07:10:58.947Z,2.20
2019-05-09T07:13:30.203Z,2.27
2019-05-09T07:16:01.362Z,3.33
2019-05-09T07:18:32.533Z,1.63
2019-05-09T07:21:03.755Z,2.57
2019-05-09T07:23:37.118Z,1.80
2019-05-09T07:26:17.695Z,1.37
2019-05-09T07:28:49.397Z,1.87
2019-05-09T07:31:34.029Z,1.90
2019-05-09T07:34:18.513Z,1.90
2019-05-09T07:36:49.765Z,1.57
2019-05-09T07:39:20.946Z,1.63
2019-05-09T07:41:52.306Z,2.30
2019-05-09T07:44:23.542Z,1.73
2019-05-09T07:47:07.489Z,2.10
2019-05-09T07:49:38.958Z,1.30
2019-05-09T07:52:10.632Z,1.77
2019-05-09T07:54:41.938Z,1.70
2019-05-09T07:57:13.156Z,1.20
2019-05-09T07:59:44.430Z,1.87
2019-05-09T08:02:17.637Z,1.30
2019-05-09T08:04:49.042Z,1.50
2019-05-09T08:07:20.549Z,1.20
2019-05-09T08:09:51.834Z,1.40
2019-05-09T08:12:23.053Z,1.30
2019-05-09T08:15:07.365Z,3.83
2019-05-09T08:17:28.608Z,1.40
2019-05-09T08:19:59.975Z,1.60
2019-05-09T08:22:32.475Z,1.20
2019-05-09T08:25:04.050Z,1.20
2019-05-09T08:27:37.576Z,1.27
2019-05-09T08:30:08.699Z,1.43
2019-05-09T08:32:39.939Z,1.30
2019-05-09T08:35:11.385Z,1.53
2019-05-09T08:37:42.646Z,1.33
2019-05-09T08:40:14.302Z,1.50
2019-05-09T08:42:47.910Z,2.00
2019-05-09T08:45:27.533Z,1.20
2019-05-09T08:47:51.342Z,1.13
2019-05-09T08:50:58.244Z,1.37
2019-05-09T08:53:29.670Z,1.13
2019-05-09T08:56:00.930Z,1.10
2019-05-09T08:58:32.164Z,1.50
2019-05-09T09:01:04.582Z,1.40
2019-05-09T09:03:37.747Z,1.43
2019-05-09T09:06:08.859Z,1.20
2019-05-09T09:08:40.066Z,1.50
2019-05-09T09:11:11.389Z,1.47
2019-05-09T09:13:42.615Z,2.17
2019-05-09T09:16:18.841Z,1.27
2019-05-09T09:18:48.113Z,1.03
2019-05-09T09:21:19.583Z,1.30
2019-05-09T09:23:51.012Z,1.47
2019-05-09T09:26:22.374Z,1.40
2019-05-09T09:28:53.605Z,1.70
2019-05-09T09:31:24.938Z,1.10
2019-05-09T09:33:58.315Z,1.77
2019-05-09T09:36:29.127Z,1.80
2019-05-09T09:39:02.944Z,1.13
2019-05-09T09:41:33.196Z,0.93
2019-05-09T09:44:04.545Z,1.00
2019-05-09T09:46:37.456Z,2.50
2019-05-09T09:49:08.900Z,1.03
2019-05-09T09:51:40.158Z,1.17
2019-05-09T09:54:11.650Z,1.90
2019-05-09T09:56:47.871Z,1.27
2019-05-09T09:59:48.341Z,1.07
2019-05-09T10:02:23.504Z,1.13
2019-05-09T10:04:54.773Z,0.90
2019-05-09T10:07:27.974Z,1.40
2019-05-09T10:09:58.821Z,1.10
2019-05-09T10:12:30.030Z,1.10
2019-05-09T10:15:08.557Z,1.33
2019-05-09T10:17:58.278Z,1.00
2019-05-09T10:20:48.332Z,1.10
2019-05-09T10:23:21.426Z,1.07
2019-05-09T10:25:51.645Z,1.47
2019-05-09T10:28:22.954Z,1.20
2019-05-09T10:30:54.198Z,1.00
2019-05-09T10:33:25.422Z,1.57
2019-05-09T10:36:03.122Z,1.30
2019-05-09T10:38:29.533Z,1.20
2019-05-09T10:41:02.024Z,1.00
2019-05-09T10:43:44.106Z,1.10
2019-05-09T10:46:56.714Z,2.27
2019-05-09T10:49:22.349Z,1.10
2019-05-09T10:51:53.571Z,0.90
2019-05-09T10:54:24.790Z,1.00
2019-05-09T10:56:57.982Z,1.53
2019-05-09T10:59:28.918Z,0.97
2019-05-09T11:02:00.146Z,1.50
2019-05-09T11:04:31.369Z,0.70
2019-05-09T11:07:02.625Z,1.47
2019-05-09T11:09:33.861Z,0.80
2019-05-09T11:12:07.704Z,0.90
2019-05-09T11:14:38.039Z,1.40
2019-05-09T11:17:16.157Z,0.80
2019-05-09T11:19:42.079Z,0.90
2019-05-09T11:22:13.220Z,1.30
2019-05-09T11:24:49.795Z,1.00
2019-05-09T11:27:18.661Z,1.20
2019-05-09T11:29:50.053Z,1.20
2019-05-09T11:32:21.277Z,1.30
2019-05-09T11:34:52.525Z,1.10
2019-05-09T11:37:23.798Z,0.97
2019-05-09T11:39:54.995Z,1.27
2019-05-09T11:42:28.317Z,1.20
2019-05-09T11:44:59.028Z,1.20
2019-05-09T11:47:39.501Z,1.27
2019-05-09T11:50:03.123Z,1.20
2019-05-09T11:52:34.379Z,1.10
2019-05-09T11:55:08.006Z,1.43
2019-05-09T11:57:38.801Z,1.17
2019-05-09T12:00:11.231Z,1.10
2019-05-09T12:02:42.425Z,1.10
2019-05-09T12:05:13.630Z,1.20
2019-05-09T12:07:44.830Z,1.40
2019-05-09T12:10:18.568Z,1.23
2019-05-09T12:12:49.170Z,1.70
2019-05-09T12:15:20.428Z,1.30
2019-05-09T12:17:58.459Z,1.20
2019-05-09T12:20:24.497Z,1.87
2019-05-09T12:22:58.185Z,2.20
2019-05-09T12:25:28.580Z,2.43
2019-05-09T12:27:59.821Z,1.70
2019-05-09T12:30:31.070Z,1.43
2019-05-09T12:33:02.325Z,1.77
2019-05-09T12:35:33.563Z,1.60
2019-05-09T12:38:04.719Z,1.30
2019-05-09T12:40:38.714Z,1.40
2019-05-09T12:43:09.240Z,1.60
2019-05-09T12:45:40.523Z,1.77
2019-05-09T12:48:15.507Z,1.60
2019-05-09T12:50:44.705Z,1.43
2019-05-09T12:53:18.683Z,1.33
2019-05-09T12:55:50.386Z,1.57
2019-05-09T12:58:30.755Z,1.20
2019-05-09T13:01:02.363Z,1.00
2019-05-09T13:03:33.621Z,1.40
2019-05-09T13:06:04.793Z,2.20
2019-05-09T13:08:38.329Z,1.43
2019-05-09T13:11:08.843Z,1.60
2019-05-09T13:13:41.350Z,1.60
2019-05-09T13:16:50.753Z,1.50
2019-05-09T13:19:20.981Z,1.00
2019-05-09T13:21:52.195Z,1.50
2019-05-09T13:24:23.475Z,1.30
2019-05-09T13:26:54.801Z,1.07
2019-05-09T13:29:26.061Z,0.90
2019-05-09T13:31:57.800Z,1.03
2019-05-09T13:34:29.077Z,1.00
2019-05-09T13:37:00.456Z,1.40
2019-05-09T13:39:31.697Z,1.63
2019-05-09T13:42:02.855Z,1.60
2019-05-09T13:44:33.980Z,1.80
2019-05-09T13:47:05.204Z,1.70
2019-05-09T13:49:36.394Z,1.77
2019-05-09T13:52:10.220Z,1.50
2019-05-09T13:54:40.484Z,1.50
2019-05-09T13:57:11.679Z,1.50
2019-05-09T13:59:42.872Z,1.63
2019-05-09T14:02:14.068Z,0.93
2019-05-09T14:04:48.368Z,1.20
2019-05-09T14:07:19.277Z,0.90
2019-05-09T14:09:50.735Z,1.50
2019-05-09T14:12:21.974Z,1.20
2019-05-09T14:14:53.148Z,1.13
2019-05-09T14:17:41.821Z,1.60
2019-05-09T14:19:57.315Z,1.57
2019-05-09T14:22:28.501Z,1.57
2019-05-09T14:24:59.993Z,1.20
2019-05-09T14:27:31.287Z,1.37
2019-05-09T14:30:02.515Z,1.23
2019-05-09T14:32:34.905Z,1.20
2019-05-09T14:35:08.541Z,1.60
2019-05-09T14:37:39.792Z,1.30
2019-05-09T14:40:11.263Z,1.03
2019-05-09T14:42:42.421Z,1.23
2019-05-09T14:45:13.785Z,1.60
2019-05-09T14:47:45.033Z,1.70
2019-05-09T14:50:18.065Z,1.30
2019-05-09T14:52:50.451Z,1.40
2019-05-09T14:55:21.979Z,1.27
2019-05-09T14:57:53.174Z,1.40
2019-05-09T15:00:24.349Z,1.87
2019-05-09T15:02:58.004Z,1.73
2019-05-09T15:05:28.629Z,1.60
2019-05-09T15:07:59.851Z,2.07
2019-05-09T15:10:31.138Z,1.50
2019-05-09T15:13:02.379Z,2.13
2019-05-09T15:15:33.580Z,2.63
2019-05-09T15:18:04.833Z,2.87
2019-05-09T15:20:38.057Z,3.00
2019-05-09T15:23:08.917Z,3.00
2019-05-09T15:25:40.108Z,2.87
2019-05-09T15:28:11.364Z,3.00
2019-05-09T15:30:42.667Z,3.40
2019-05-09T15:33:13.808Z,3.03
2019-05-09T15:35:45.079Z,2.67
2019-05-09T15:38:18.126Z,2.70
2019-05-09T15:40:54.469Z,2.73
2019-05-09T15:43:25.966Z,3.20
2019-05-09T15:46:08.372Z,2.70
2019-05-09T15:48:39.754Z,2.90
2019-05-09T15:51:10.888Z,2.70
2019-05-09T15:53:43.335Z,3.20
2019-05-09T15:56:14.446Z,3.23
2019-05-09T15:58:45.692Z,3.10
2019-05-09T16:01:18.378Z,3.60
2019-05-09T16:03:49.863Z,3.67
2019-05-09T16:06:21.107Z,3.43
2019-05-09T16:08:52.246Z,3.93
2019-05-09T16:11:23.487Z,3.00
2019-05-09T16:13:54.721Z,3.13
2019-05-09T16:16:28.418Z,3.00
2019-05-09T16:18:58.714Z,3.23
2019-05-09T16:21:29.910Z,2.63
2019-05-09T16:24:01.249Z,3.17
2019-05-09T16:26:32.469Z,3.57
2019-05-09T16:29:03.771Z,3.00
2019-05-09T16:31:38.416Z,3.07
2019-05-09T16:34:09.592Z,2.60
2019-05-09T16:36:40.905Z,3.00
2019-05-09T16:39:12.270Z,2.73
2019-05-09T16:41:44.001Z,3.23
2019-05-09T16:44:17.981Z,2.73
2019-05-09T16:46:48.569Z,3.13
2019-05-09T16:49:25.892Z,2.43
2019-05-09T16:51:55.514Z,2.40
2019-05-09T16:54:30.674Z,1.97
2019-05-09T16:57:01.834Z,2.37
2019-05-09T16:59:33.061Z,2.03
2019-05-09T17:02:17.897Z,2.67
2019-05-09T17:04:38.654Z,2.40
2019-05-09T17:07:10.049Z,2.30
2019-05-09T17:09:48.360Z,1.80
2019-05-09T17:12:19.166Z,1.57
2019-05-09T17:14:50.289Z,1.60
2019-05-09T17:17:21.567Z,1.63
2019-05-09T17:19:52.783Z,2.00
2019-05-09T17:22:41.367Z,1.90
2019-05-09T17:25:12.743Z,1.90
2019-05-09T17:27:44.079Z,1.53
2019-05-09T17:30:15.572Z,1.27
2019-05-09T17:32:47.498Z,1.43
2019-05-09T17:35:18.990Z,1.60
2019-05-09T17:37:50.130Z,1.40
2019-05-09T17:40:21.277Z,1.40
2019-05-09T17:42:52.601Z,1.33
2019-05-09T17:45:23.770Z,1.83
2019-05-09T17:47:55.005Z,2.07
2019-05-09T17:50:28.425Z,1.80
2019-05-09T17:52:59.075Z,1.63
2019-05-09T17:55:30.233Z,1.47
2019-05-09T17:58:01.474Z,1.80
2019-05-09T18:00:32.752Z,1.87
2019-05-09T18:03:04.527Z,2.20
2019-05-09T18:05:38.662Z,2.20
2019-05-09T18:08:08.687Z,2.23
2019-05-09T18:10:39.946Z,2.03
2019-05-09T18:13:11.174Z,2.20
2019-05-09T18:15:42.323Z,1.90
2019-05-09T18:18:13.580Z,2.37
2019-05-09T18:20:44.945Z,2.40
2019-05-09T18:23:17.674Z,1.93
2019-05-09T18:25:49.526Z,1.93
2019-05-09T18:28:20.977Z,2.00
2019-05-09T18:30:52.243Z,2.13
2019-05-09T18:33:29.168Z,2.70
2019-05-09T18:36:00.369Z,3.57
2019-05-09T18:38:35.339Z,2.93
2019-05-09T18:41:09.994Z,2.60
2019-05-09T18:43:39.880Z,4.27
2019-05-09T18:46:11.086Z,3.00
2019-05-09T18:48:42.353Z,3.43
2019-05-09T18:51:13.527Z,3.60
2019-05-09T18:53:44.765Z,3.30
2019-05-09T18:56:16.055Z,3.60
2019-05-09T18:58:47.324Z,3.70
2019-05-09T19:01:18.586Z,3.77
2019-05-09T19:03:49.808Z,3.90
2019-05-09T19:06:21.060Z,3.57
2019-05-09T19:08:52.268Z,4.03
2019-05-09T19:11:23.576Z,5.20
2019-05-09T19:13:55.825Z,4.37
2019-05-09T19:16:33.277Z,4.77
2019-05-09T19:19:23.140Z,5.00
2019-05-09T19:21:57.533Z,4.90
2019-05-09T19:24:28.775Z,5.37
2019-05-09T19:26:59.939Z,5.67
2019-05-09T19:29:31.030Z,5.70
2019-05-09T19:32:02.304Z,5.70
2019-05-09T19:34:33.502Z,7.67
2019-05-09T19:37:04.725Z,6.20
2019-05-09T19:39:35.977Z,6.90
2019-05-09T19:42:07.163Z,8.90
2019-05-09T19:44:38.288Z,7.63
2019-05-09T19:47:09.544Z,7.10
2019-05-09T19:49:40.807Z,8.57
2019-05-09T19:52:12.259Z,7.60
2019-05-09T19:54:46.201Z,8.07
2019-05-09T19:57:18.260Z,5.13
2019-05-09T19:59:56.519Z,4.93
2019-05-09T20:02:30.850Z,5.17
2019-05-09T20:05:11.604Z,4.20
2019-05-09T20:07:48.462Z,4.90
2019-05-09T20:10:43.493Z,3.43
2019-05-09T20:13:33.638Z,3.67
2019-05-09T20:16:08.057Z,3.63
2019-05-09T20:18:48.842Z,3.23
2019-05-09T20:21:21.482Z,3.73
2019-05-09T20:23:52.805Z,4.60
2019-05-09T20:26:24.089Z,4.10
2019-05-09T20:28:55.381Z,3.70
2019-05-09T20:31:27.922Z,4.80
2019-05-09T20:33:59.201Z,5.53
2019-05-09T20:36:30.422Z,4.67
2019-05-09T20:39:01.869Z,4.00
2019-05-09T20:41:33.295Z,5.17
2019-05-09T20:44:04.827Z,3.80
2019-05-09T20:46:39.221Z,4.40
2019-05-09T20:49:12.411Z,4.40
2019-05-09T20:51:43.836Z,4.60
2019-05-09T20:54:20.992Z,4.57
2019-05-09T20:56:48.328Z,4.90
2019-05-09T20:59:19.724Z,4.90
2019-05-09T21:01:51.685Z,5.13
2019-05-09T21:04:23.184Z,6.17
2019-05-09T21:06:54.560Z,5.77
2019-05-09T21:09:25.930Z,4.63
2019-05-09T21:11:57.350Z,5.63
2019-05-09T21:14:29.046Z,6.03
2019-05-09T21:17:07.292Z,6.27
2019-05-09T21:19:39.792Z,6.10
2019-05-09T21:22:11.147Z,5.37
2019-05-09T21:24:42.599Z,6.60
2019-05-09T21:27:14.076Z,6.70
2019-05-09T21:29:45.596Z,7.10
2019-05-09T21:32:17.051Z,8.00
2019-05-09T21:34:48.469Z,6.40
2019-05-09T21:37:19.710Z,5.57
2019-05-09T21:39:50.960Z,5.87
2019-05-09T21:42:22.168Z,6.93
2019-05-09T21:44:54.209Z,7.07
2019-05-09T21:47:26.394Z,7.70
2019-05-09T21:49:57.813Z,6.70
2019-05-09T21:52:29.105Z,8.60
2019-05-09T21:55:00.280Z,9.37
2019-05-09T21:57:31.542Z,8.63
2019-05-09T22:00:03.199Z,8.23
2019-05-09T22:02:34.645Z,7.47
2019-05-09T22:05:06.469Z,9.00
2019-05-09T22:07:37.662Z,8.30
2019-05-09T22:10:09.454Z,9.27
2019-05-09T22:12:40.655Z,8.13
2019-05-09T22:15:13.154Z,9.07
2019-05-09T22:17:48.072Z,9.67
2019-05-09T22:20:19.574Z,9.27
2019-05-09T22:22:53.692Z,8.60
2019-05-09T22:25:24.979Z,9.20
2019-05-09T22:27:56.823Z,8.97
2019-05-09T22:30:28.089Z,9.70
2019-05-09T22:32:59.381Z,9.37
2019-05-09T22:35:30.657Z,10.03
2019-05-09T22:38:01.886Z,8.80
2019-05-09T22:40:41.808Z,9.90
2019-05-09T22:43:13.228Z,10.70
2019-05-09T22:45:44.886Z,9.03
2019-05-09T22:48:16.957Z,8.87
2019-05-09T22:50:51.621Z,10.10
2019-05-09T22:53:25.845Z,10.47
2019-05-09T22:55:59.705Z,8.77
2019-05-09T22:58:30.900Z,8.50
2019-05-09T23:01:02.831Z,7.67
2019-05-09T23:03:34.077Z,9.20
2019-05-09T23:06:05.323Z,7.90
2019-05-09T23:08:36.596Z,7.43
2019-05-09T23:11:07.952Z,6.73
2019-05-09T23:13:54.296Z,6.40
2019-05-09T23:16:28.530Z,6.60
2019-05-09T23:18:59.973Z,5.90
2019-05-09T23:21:31.321Z,7.40
2019-05-09T23:24:04.988Z,6.67
2019-05-09T23:26:36.044Z,6.47
2019-05-09T23:29:07.303Z,7.70
2019-05-09T23:31:59.977Z,7.20
2019-05-09T23:34:31.239Z,7.50
2019-05-09T23:37:02.483Z,7.97
2019-05-09T23:39:41.423Z,7.33
2019-05-09T23:42:12.761Z,5.63
2019-05-09T23:44:44.070Z,5.33
2019-05-09T23:47:15.408Z,7.20
2019-05-09T23:49:46.593Z,6.03
2019-05-09T23:52:17.875Z,5.93
2019-05-09T23:55:21.348Z,5.70
2019-05-09T23:58:11.284Z,5.40
